Time;durP1;ratioP1;P1;durP2;ratioP2;P2;SDS_P1;SDS_P2;PMS_P1;PMS_P2;Temp;Humidity;BMP_temperature;BMP_pressure;BME280_temperature;BME280_humidity;BME280_pressure;Samples;Min_cycle;Max_cycle;Signal;HPM_P1;HPM_P2
2023/06/04 00:01:15;;;;;;;8.10;6.40;;;19.60;99.90;;;;;;4998569;28;20049;-82
2023/06/04 00:03:43;;;;;;;10.30;6.25;;;19.60;99.90;;;;;;5006335;28;20173;-82
2023/06/04 00:06:10;;;;;;;12.27;6.97;;;19.50;99.90;;;;;;5004744;28;20043;-81
2023/06/04 00:08:37;;;;;;;9.43;5.95;;;19.50;99.90;;;;;;5003871;28;20042;-81
2023/06/04 00:11:03;;;;;;;11.10;6.32;;;19.50;99.90;;;;;;5002302;28;20054;-82
2023/06/04 00:13:31;;;;;;;8.68;5.97;;;19.40;99.90;;;;;;5003291;28;20074;-81
2023/06/04 00:15:57;;;;;;;7.63;5.88;;;19.40;99.90;;;;;;5000121;28;20082;-82
2023/06/04 00:18:24;;;;;;;9.07;6.32;;;19.30;99.90;;;;;;5003832;28;20047;-81
2023/06/04 00:20:51;;;;;;;10.98;7.13;;;19.30;99.90;;;;;;5005028;28;20082;-82
2023/06/04 00:23:18;;;;;;;9.13;5.80;;;19.20;99.90;;;;;;4993529;28;20046;-81
2023/06/04 00:25:45;;;;;;;12.15;6.13;;;19.20;99.90;;;;;;5000365;28;20051;-80
2023/06/04 00:28:12;;;;;;;7.18;5.97;;;19.20;99.90;;;;;;5005489;28;20409;-81
2023/06/04 00:30:38;;;;;;;10.90;6.70;;;19.10;99.90;;;;;;5000250;28;20054;-82
2023/06/04 00:33:05;;;;;;;7.18;6.35;;;19.00;99.90;;;;;;5000260;28;20026;-82
2023/06/04 00:35:32;;;;;;;9.95;5.72;;;19.00;99.90;;;;;;5002902;28;20081;-82
2023/06/04 00:37:59;;;;;;;9.38;6.10;;;19.00;99.90;;;;;;5019943;28;20074;-82
2023/06/04 00:40:26;;;;;;;6.90;5.63;;;18.90;99.90;;;;;;4985759;28;20177;-81
2023/06/04 00:42:52;;;;;;;9.93;6.03;;;18.90;99.90;;;;;;5007242;28;20055;-82
2023/06/04 00:45:20;;;;;;;8.55;6.20;;;18.90;99.90;;;;;;4984310;28;20046;-81
2023/06/04 00:47:47;;;;;;;7.97;5.90;;;18.80;99.90;;;;;;5003419;28;20054;-82
2023/06/04 00:50:14;;;;;;;10.20;6.22;;;18.80;99.90;;;;;;5005303;28;20077;-82
2023/06/04 00:52:41;;;;;;;8.48;6.72;;;18.70;99.90;;;;;;5003688;28;20089;-83
2023/06/04 00:55:09;;;;;;;7.45;5.55;;;18.70;99.90;;;;;;5002806;28;20048;-82
2023/06/04 00:57:37;;;;;;;10.93;5.97;;;18.70;99.90;;;;;;5008451;28;20059;-82
2023/06/04 01:00:05;;;;;;;9.07;5.63;;;18.70;99.90;;;;;;5001730;28;20046;-82
2023/06/04 01:02:35;;;;;;;7.32;6.38;;;18.60;99.90;;;;;;5007319;28;20030;-81
2023/06/04 01:05:40;;;;;;;7.15;5.50;;;18.60;99.90;;;;;;5003894;28;20046;-81
2023/06/04 01:08:09;;;;;;;6.95;6.07;;;18.50;99.90;;;;;;4959961;28;20042;-81
2023/06/04 01:10:36;;;;;;;8.43;6.45;;;18.50;99.90;;;;;;4991730;28;20073;-81
2023/06/04 01:13:03;;;;;;;7.07;6.07;;;18.40;99.90;;;;;;5004589;28;20046;-81
2023/06/04 01:15:29;;;;;;;7.22;5.68;;;18.40;99.90;;;;;;4995471;28;20042;-81
2023/06/04 01:18:03;;;;;;;10.27;6.35;;;18.40;99.90;;;;;;5001884;28;20462;-81
2023/06/04 01:20:37;;;;;;;10.43;7.15;;;18.30;99.90;;;;;;5002609;28;20414;-81
2023/06/04 01:23:23;;;;;;;11.77;6.93;;;18.30;99.90;;;;;;5003473;28;20046;-81
2023/06/04 01:25:51;;;;;;;9.27;6.65;;;18.30;99.90;;;;;;5001385;28;20047;-81
2023/06/04 01:28:20;;;;;;;9.88;6.70;;;18.20;99.90;;;;;;5002989;28;20042;-81
2023/06/04 01:30:48;;;;;;;8.23;6.93;;;18.20;99.90;;;;;;4996932;28;20061;-82
2023/06/04 01:33:17;;;;;;;11.93;7.03;;;18.20;99.90;;;;;;5003428;28;20049;-82
2023/06/04 01:35:44;;;;;;;9.88;6.60;;;18.10;99.90;;;;;;5003989;28;20049;-82
2023/06/04 01:38:11;;;;;;;7.70;6.35;;;18.10;99.90;;;;;;5003829;28;20050;-82
2023/06/04 01:40:38;;;;;;;8.35;5.97;;;18.10;99.90;;;;;;5004132;28;20207;-82
2023/06/04 01:43:05;;;;;;;12.48;6.18;;;18.00;99.90;;;;;;5008755;28;20050;-82
2023/06/04 01:45:32;;;;;;;9.60;6.47;;;18.00;99.90;;;;;;5002749;28;20074;-81
2023/06/04 01:48:02;;;;;;;9.90;6.45;;;18.00;99.90;;;;;;5008254;28;20054;-82
2023/06/04 01:50:30;;;;;;;9.90;5.80;;;18.00;99.90;;;;;;5008123;28;20042;-83
2023/06/04 01:52:57;;;;;;;8.15;5.88;;;17.90;99.90;;;;;;5009979;28;20054;-82
2023/06/04 01:55:29;;;;;;;8.07;6.18;;;17.90;99.90;;;;;;5008360;28;20033;-82
2023/06/04 01:57:56;;;;;;;9.43;6.93;;;17.90;99.90;;;;;;5004593;28;20059;-82
2023/06/04 02:00:22;;;;;;;10.18;6.53;;;17.80;99.90;;;;;;4996660;28;20030;-81
2023/06/04 02:02:49;;;;;;;10.23;6.35;;;17.80;99.90;;;;;;4998930;28;20062;-81
2023/06/04 02:05:16;;;;;;;10.88;6.50;;;17.80;99.90;;;;;;4984446;28;20056;-81
2023/06/04 02:07:44;;;;;;;9.95;6.40;;;17.70;99.90;;;;;;4988638;28;20055;-81
2023/06/04 02:10:14;;;;;;;9.95;6.53;;;17.70;99.90;;;;;;4998921;28;20046;-81
2023/06/04 02:12:52;;;;;;;9.38;6.60;;;17.70;99.90;;;;;;5002059;28;20050;-82
2023/06/04 02:15:19;;;;;;;7.78;6.30;;;17.60;99.90;;;;;;4994972;28;20105;-81
2023/06/04 02:17:47;;;;;;;10.32;6.57;;;17.60;99.90;;;;;;4997119;28;20050;-81
2023/06/04 02:20:14;;;;;;;11.05;6.82;;;17.60;99.90;;;;;;5000608;28;20042;-81
2023/06/04 02:22:41;;;;;;;9.10;6.28;;;17.50;99.90;;;;;;4999776;28;20106;-81
2023/06/04 02:25:09;;;;;;;12.27;6.38;;;17.50;99.90;;;;;;4998555;28;20046;-81
2023/06/04 02:27:35;;;;;;;10.50;6.93;;;17.50;99.90;;;;;;4987355;28;20050;-81
2023/06/04 02:30:03;;;;;;;9.70;6.13;;;17.50;99.90;;;;;;4995410;28;20051;-82
2023/06/04 02:32:30;;;;;;;11.68;7.10;;;17.40;99.90;;;;;;5000797;28;20054;-81
2023/06/04 02:34:57;;;;;;;9.95;6.82;;;17.40;99.90;;;;;;4989602;28;20065;-81
2023/06/04 02:37:24;;;;;;;10.43;6.28;;;17.40;99.90;;;;;;4983773;28;20046;-80
2023/06/04 02:39:51;;;;;;;9.32;6.18;;;17.30;99.90;;;;;;4972833;28;20101;-80
2023/06/04 02:42:18;;;;;;;8.95;6.65;;;17.30;99.90;;;;;;4994821;28;20058;-82
2023/06/04 02:44:45;;;;;;;9.93;7.13;;;17.30;99.90;;;;;;4996899;28;20588;-81
2023/06/04 02:47:12;;;;;;;7.40;6.38;;;17.30;99.90;;;;;;5016794;28;20069;-80
2023/06/04 02:49:39;;;;;;;8.13;5.88;;;17.20;99.90;;;;;;5001438;28;20062;-82
2023/06/04 02:52:06;;;;;;;12.15;6.80;;;17.20;99.90;;;;;;5000863;28;20434;-81
2023/06/04 02:54:32;;;;;;;8.38;6.38;;;17.20;99.90;;;;;;4993005;28;20081;-80
2023/06/04 02:56:59;;;;;;;10.52;6.40;;;17.10;99.90;;;;;;4997216;28;20097;-81
2023/06/04 02:59:26;;;;;;;6.72;5.93;;;17.10;99.90;;;;;;4972704;28;20053;-81
2023/06/04 03:01:53;;;;;;;14.00;6.63;;;17.10;99.90;;;;;;4994515;28;20050;-80
2023/06/04 03:04:20;;;;;;;10.30;6.82;;;17.10;99.90;;;;;;4995727;28;20081;-80
2023/06/04 03:06:47;;;;;;;11.13;6.53;;;17.00;99.90;;;;;;4995908;28;20054;-83
2023/06/04 03:09:14;;;;;;;9.48;6.40;;;17.00;99.90;;;;;;4974424;28;20414;-81
2023/06/04 03:11:41;;;;;;;10.32;6.90;;;17.00;99.90;;;;;;4995321;28;20122;-80
2023/06/04 03:14:07;;;;;;;6.60;5.90;;;17.00;99.90;;;;;;4990854;28;20112;-80
2023/06/04 03:16:34;;;;;;;8.20;6.18;;;17.00;99.90;;;;;;4992987;28;20082;-80
2023/06/04 03:19:01;;;;;;;8.40;6.88;;;17.00;99.90;;;;;;4997511;28;20078;-81
2023/06/04 03:21:29;;;;;;;9.02;6.35;;;16.90;99.90;;;;;;4995058;28;20050;-80
2023/06/04 03:23:56;;;;;;;11.48;6.57;;;16.90;99.90;;;;;;4992412;28;20517;-81
2023/06/04 03:26:22;;;;;;;7.95;6.32;;;16.90;99.90;;;;;;4993407;28;20054;-80
2023/06/04 03:28:50;;;;;;;10.85;6.85;;;16.80;99.90;;;;;;4985189;28;20422;-81
2023/06/04 03:31:16;;;;;;;8.63;6.55;;;16.80;99.90;;;;;;4992121;28;20057;-80
2023/06/04 03:33:43;;;;;;;8.13;6.68;;;16.80;99.90;;;;;;4985291;28;20083;-81
2023/06/04 03:36:10;;;;;;;7.93;6.75;;;16.80;99.90;;;;;;4999497;28;20041;-82
2023/06/04 03:38:37;;;;;;;9.18;6.32;;;16.80;99.90;;;;;;4999341;28;20046;-81
2023/06/04 03:41:03;;;;;;;9.40;6.90;;;16.70;99.90;;;;;;5001528;28;20051;-80
2023/06/04 03:43:30;;;;;;;10.98;6.97;;;16.70;99.90;;;;;;4979692;28;20062;-81
2023/06/04 03:45:57;;;;;;;14.18;7.30;;;16.70;99.90;;;;;;4994875;28;20062;-81
2023/06/04 03:48:24;;;;;;;11.30;7.00;;;16.70;99.90;;;;;;5000495;28;20069;-81
2023/06/04 03:50:51;;;;;;;7.78;6.43;;;16.70;99.90;;;;;;4997205;28;20054;-81
2023/06/04 03:53:17;;;;;;;11.38;6.60;;;16.70;99.90;;;;;;4996310;28;20046;-81
2023/06/04 03:55:44;;;;;;;8.65;6.53;;;16.70;99.90;;;;;;4988690;28;20058;-80
2023/06/04 03:58:11;;;;;;;9.93;6.93;;;16.70;99.90;;;;;;4994763;28;20042;-81
2023/06/04 04:00:38;;;;;;;9.25;6.53;;;16.70;99.90;;;;;;4991782;28;20086;-80
2023/06/04 04:03:07;;;;;;;11.38;6.68;;;16.70;99.90;;;;;;5000052;28;20415;-81
2023/06/04 04:05:35;;;;;;;10.17;6.70;;;16.80;99.90;;;;;;4997378;28;20051;-82
2023/06/04 04:08:03;;;;;;;7.75;5.82;;;16.80;99.90;;;;;;4995246;28;20134;-81
2023/06/04 04:10:30;;;;;;;8.75;6.47;;;16.80;99.90;;;;;;4985029;28;20100;-80
2023/06/04 04:12:58;;;;;;;11.00;6.85;;;16.90;99.90;;;;;;4996036;28;20061;-82
2023/06/04 04:15:25;;;;;;;11.02;6.35;;;16.90;99.90;;;;;;4991582;28;20055;-82
2023/06/04 04:17:52;;;;;;;9.75;6.35;;;16.90;99.90;;;;;;4997840;28;20054;-80
2023/06/04 04:20:19;;;;;;;12.27;6.68;;;17.00;99.90;;;;;;4998169;28;20042;-81
2023/06/04 04:22:46;;;;;;;10.32;6.65;;;17.00;99.90;;;;;;4995500;28;20051;-81
2023/06/04 04:25:16;;;;;;;9.65;6.75;;;17.00;99.90;;;;;;4989244;28;20064;-80
2023/06/04 04:27:42;;;;;;;9.48;6.20;;;17.10;99.90;;;;;;4993842;28;20054;-81
2023/06/04 04:30:10;;;;;;;11.63;7.05;;;17.10;99.90;;;;;;4995948;28;20050;-82
2023/06/04 04:32:38;;;;;;;10.90;6.93;;;17.20;99.90;;;;;;5001932;28;20061;-81
2023/06/04 04:35:07;;;;;;;11.73;6.57;;;17.20;99.90;;;;;;5001243;28;20047;-82
2023/06/04 04:37:38;;;;;;;10.80;6.25;;;17.20;99.90;;;;;;4987836;28;20099;-80
2023/06/04 04:40:09;;;;;;;11.15;6.70;;;17.20;99.90;;;;;;4994952;28;20110;-82
2023/06/04 04:42:36;;;;;;;9.05;6.68;;;17.30;99.90;;;;;;5002402;28;20062;-81
2023/06/04 04:45:04;;;;;;;9.05;7.00;;;17.30;99.90;;;;;;4997785;28;20050;-81
2023/06/04 04:47:30;;;;;;;8.02;6.13;;;17.30;99.90;;;;;;5003204;28;20050;-81
2023/06/04 04:49:57;;;;;;;10.18;6.95;;;17.40;99.90;;;;;;5002472;28;20057;-82
2023/06/04 04:52:24;;;;;;;11.60;7.15;;;17.50;99.90;;;;;;5003471;28;20046;-81
2023/06/04 04:54:55;;;;;;;10.95;6.80;;;17.50;99.90;;;;;;4998727;28;20523;-82
2023/06/04 04:57:22;;;;;;;11.30;6.60;;;17.60;99.90;;;;;;4999178;28;20058;-82
2023/06/04 04:59:49;;;;;;;7.45;5.80;;;17.70;99.90;;;;;;4996730;28;20494;-82
2023/06/04 05:02:16;;;;;;;9.15;7.10;;;17.80;99.90;;;;;;5005843;28;20050;-81
2023/06/04 05:04:43;;;;;;;11.30;6.68;;;18.00;99.90;;;;;;5004939;28;20062;-82
2023/06/04 05:07:10;;;;;;;12.75;7.75;;;18.10;99.90;;;;;;5006646;28;20038;-83
2023/06/04 05:09:37;;;;;;;9.65;6.45;;;18.20;99.90;;;;;;5000380;28;20042;-82
2023/06/04 05:12:03;;;;;;;10.27;6.97;;;18.30;99.90;;;;;;4998150;28;20058;-83
2023/06/04 05:14:31;;;;;;;10.60;6.40;;;18.40;99.90;;;;;;5004462;28;20030;-82
2023/06/04 05:16:58;;;;;;;8.75;6.00;;;18.50;99.90;;;;;;5006221;28;20058;-82
2023/06/04 05:19:24;;;;;;;7.95;6.22;;;18.60;99.90;;;;;;4993929;28;20050;-82
2023/06/04 05:21:51;;;;;;;10.77;6.13;;;18.70;99.90;;;;;;5010135;28;20046;-84
2023/06/04 05:24:18;;;;;;;8.93;5.00;;;18.80;99.90;;;;;;5004025;28;20077;-82
2023/06/04 05:26:44;;;;;;;12.63;6.57;;;18.90;99.90;;;;;;5005001;28;20054;-82
2023/06/04 05:29:11;;;;;;;10.65;6.05;;;19.00;99.90;;;;;;5004146;28;20062;-81
2023/06/04 05:31:39;;;;;;;9.65;6.20;;;19.10;99.90;;;;;;4999485;28;20430;-80
2023/06/04 05:34:06;;;;;;;12.07;5.75;;;19.20;99.90;;;;;;5002026;28;20058;-80
2023/06/04 05:36:33;;;;;;;12.45;6.32;;;19.30;99.90;;;;;;5000059;28;20047;-82
2023/06/04 05:39:00;;;;;;;9.40;5.75;;;19.40;99.90;;;;;;4993329;28;20043;-80
2023/06/04 05:41:27;;;;;;;12.13;5.88;;;19.40;99.90;;;;;;5002747;28;20053;-81
2023/06/04 05:43:54;;;;;;;9.60;5.80;;;19.40;99.90;;;;;;4994764;28;20050;-82
2023/06/04 05:46:21;;;;;;;7.47;5.35;;;19.40;99.90;;;;;;4995794;28;20053;-81
2023/06/04 05:48:49;;;;;;;10.63;5.82;;;19.40;99.90;;;;;;5001103;28;20066;-81
2023/06/04 05:51:15;;;;;;;7.80;5.75;;;19.40;99.90;;;;;;5000882;28;20050;-80
2023/06/04 05:53:42;;;;;;;13.18;7.60;;;19.30;99.90;;;;;;4995537;28;20051;-81
2023/06/04 05:56:09;;;;;;;10.35;5.95;;;19.30;99.90;;;;;;5000319;28;20066;-81
2023/06/04 05:58:36;;;;;;;12.32;5.43;;;19.30;99.90;;;;;;4999631;28;20046;-80
2023/06/04 06:01:03;;;;;;;11.32;5.65;;;19.30;99.90;;;;;;4996974;28;20050;-81
2023/06/04 06:03:30;;;;;;;16.00;6.50;;;19.20;99.90;;;;;;5001847;28;20058;-80
2023/06/04 06:05:59;;;;;;;9.95;6.88;;;19.10;99.90;;;;;;4999148;28;20038;-80
2023/06/04 06:08:26;;;;;;;8.37;6.00;;;18.90;99.90;;;;;;4978692;28;20066;-80
2023/06/04 06:10:53;;;;;;;10.93;6.97;;;18.90;99.90;;;;;;4997949;28;20290;-81
2023/06/04 06:13:20;;;;;;;9.93;5.90;;;18.70;99.90;;;;;;4998039;28;20081;-80
2023/06/04 06:15:50;;;;;;;15.07;7.25;;;18.70;99.90;;;;;;4999805;28;20081;-82
2023/06/04 06:18:17;;;;;;;10.27;6.28;;;18.70;99.90;;;;;;5005318;28;20118;-81
2023/06/04 06:20:44;;;;;;;16.50;6.88;;;18.70;99.90;;;;;;5001607;28;20077;-81
2023/06/04 06:23:10;;;;;;;10.30;6.15;;;18.70;99.90;;;;;;4989826;28;20070;-81
2023/06/04 06:25:40;;;;;;;21.80;8.07;;;18.70;99.90;;;;;;4990369;28;20054;-80
2023/06/04 06:28:07;;;;;;;10.30;7.30;;;18.70;99.90;;;;;;4996239;28;20068;-81
2023/06/04 06:30:34;;;;;;;10.88;7.30;;;18.80;99.90;;;;;;4995595;28;20046;-83
2023/06/04 06:33:00;;;;;;;9.73;6.75;;;18.80;99.90;;;;;;5001807;28;20064;-80
2023/06/04 06:35:27;;;;;;;9.85;6.03;;;18.70;99.90;;;;;;5002967;28;20109;-81
2023/06/04 06:37:54;;;;;;;10.95;7.22;;;18.80;99.90;;;;;;4997611;28;20046;-80
2023/06/04 06:40:21;;;;;;;8.15;6.22;;;18.80;99.90;;;;;;4995174;28;20042;-80
2023/06/04 06:42:49;;;;;;;8.27;5.97;;;18.80;99.90;;;;;;4993502;28;20063;-82
2023/06/04 06:45:20;;;;;;;8.52;5.63;;;18.80;99.90;;;;;;4989906;28;20050;-82
2023/06/04 06:47:47;;;;;;;15.80;5.18;;;18.80;99.90;;;;;;4986411;28;20050;-82
2023/06/04 06:50:14;;;;;;;10.70;5.57;;;18.80;99.90;;;;;;5002350;28;20047;-82
2023/06/04 06:52:41;;;;;;;11.73;5.70;;;18.80;99.90;;;;;;5000025;28;20042;-81
2023/06/04 06:55:08;;;;;;;8.60;5.47;;;18.90;99.90;;;;;;4984146;28;20141;-80
2023/06/04 06:57:34;;;;;;;11.35;5.40;;;18.90;99.90;;;;;;4979380;28;20117;-78
2023/06/04 07:00:03;;;;;;;12.35;5.25;;;19.00;99.90;;;;;;4992630;28;20030;-81
2023/06/04 07:02:29;;;;;;;9.75;5.45;;;19.10;99.90;;;;;;5004101;28;20109;-82
2023/06/04 07:04:56;;;;;;;9.43;5.32;;;19.10;99.90;;;;;;4999112;28;20165;-82
2023/06/04 07:07:23;;;;;;;14.05;5.57;;;19.20;99.90;;;;;;4985787;28;20129;-81
2023/06/04 07:09:50;;;;;;;11.18;4.82;;;19.30;99.90;;;;;;4999878;28;20058;-82
2023/06/04 07:12:17;;;;;;;7.93;5.20;;;19.40;99.90;;;;;;4985199;28;20043;-82
2023/06/04 07:14:45;;;;;;;7.63;5.25;;;19.50;99.90;;;;;;4997108;28;20109;-81
2023/06/04 07:17:11;;;;;;;9.30;4.85;;;19.60;99.90;;;;;;5005159;28;20078;-82
2023/06/04 07:19:38;;;;;;;8.23;5.05;;;19.70;99.90;;;;;;5003262;28;20082;-81
2023/06/04 07:22:05;;;;;;;10.30;5.20;;;19.70;99.90;;;;;;5004383;28;20046;-81
2023/06/04 07:24:32;;;;;;;8.93;5.53;;;19.70;99.90;;;;;;4999211;28;20097;-82
2023/06/04 07:26:58;;;;;;;9.40;5.25;;;19.70;99.90;;;;;;4991131;28;20062;-82
2023/06/04 07:29:25;;;;;;;12.95;5.88;;;19.70;99.90;;;;;;5001206;28;20699;-82
2023/06/04 07:31:52;;;;;;;12.18;6.03;;;19.60;99.90;;;;;;5005436;28;20047;-82
2023/06/04 07:34:19;;;;;;;11.00;5.47;;;19.60;99.90;;;;;;5006544;28;20114;-82
2023/06/04 07:36:47;;;;;;;10.18;5.80;;;19.60;99.90;;;;;;5004761;28;20055;-82
2023/06/04 07:39:13;;;;;;;12.90;5.53;;;19.70;99.90;;;;;;4999911;28;20486;-83
2023/06/04 07:41:40;;;;;;;9.30;6.38;;;19.60;99.90;;;;;;5004548;28;20077;-81
2023/06/04 07:44:07;;;;;;;10.75;6.10;;;19.50;99.90;;;;;;5009824;28;20026;-82
2023/06/04 07:46:33;;;;;;;7.20;5.57;;;19.60;99.90;;;;;;4999196;28;20042;-81
2023/06/04 07:49:00;;;;;;;11.30;6.30;;;19.60;99.90;;;;;;4987544;28;20057;-81
2023/06/04 07:51:27;;;;;;;9.55;6.40;;;19.70;99.90;;;;;;5000449;28;20146;-81
2023/06/04 07:53:54;;;;;;;10.70;6.32;;;19.70;99.90;;;;;;5000106;28;20042;-81
2023/06/04 07:56:20;;;;;;;8.57;5.72;;;19.80;99.90;;;;;;5004617;28;20538;-82
2023/06/04 07:58:47;;;;;;;9.85;5.70;;;19.90;99.90;;;;;;4999526;28;20042;-82
2023/06/04 08:01:15;;;;;;;7.22;5.82;;;20.00;99.90;;;;;;5000450;28;20072;-82
2023/06/04 08:03:42;;;;;;;9.35;5.85;;;20.20;99.90;;;;;;4987728;28;20050;-82
2023/06/04 08:06:09;;;;;;;10.75;5.97;;;20.40;99.90;;;;;;5001781;28;20058;-83
2023/06/04 08:08:36;;;;;;;10.95;5.80;;;20.40;99.90;;;;;;4997694;28;20055;-83
2023/06/04 08:11:03;;;;;;;11.90;6.20;;;20.60;99.90;;;;;;5000886;28;20105;-81
2023/06/04 08:13:30;;;;;;;11.00;5.63;;;20.70;99.90;;;;;;4977334;28;20114;-82
2023/06/04 08:15:57;;;;;;;7.95;4.28;;;20.90;99.90;;;;;;4998826;28;20038;-80
2023/06/04 08:18:23;;;;;;;8.57;5.85;;;21.00;99.90;;;;;;5001282;28;20046;-82
2023/06/04 08:20:51;;;;;;;8.93;4.82;;;21.10;99.90;;;;;;5000443;28;20043;-81
2023/06/04 08:23:17;;;;;;;6.05;4.75;;;21.20;99.90;;;;;;4986729;28;20043;-81
2023/06/04 08:25:44;;;;;;;6.60;5.15;;;21.40;99.90;;;;;;4999983;28;20042;-81
2023/06/04 08:28:13;;;;;;;6.70;4.90;;;21.50;99.90;;;;;;4993524;28;20135;-81
2023/06/04 08:30:40;;;;;;;7.93;4.60;;;21.50;99.90;;;;;;4993257;28;20046;-81
2023/06/04 08:33:07;;;;;;;10.82;4.15;;;21.50;99.90;;;;;;4998534;28;20038;-81
2023/06/04 08:35:37;;;;;;;9.68;5.00;;;21.50;99.90;;;;;;4999447;28;20042;-82
2023/06/04 08:38:04;;;;;;;11.77;5.65;;;21.50;99.90;;;;;;4985567;28;20090;-80
2023/06/04 08:40:31;;;;;;;8.07;4.97;;;21.40;99.90;;;;;;4998794;28;20426;-80
2023/06/04 08:42:59;;;;;;;7.53;4.63;;;21.30;99.90;;;;;;5008478;28;20532;-80
2023/06/04 08:45:26;;;;;;;10.30;4.65;;;21.20;99.90;;;;;;4996554;28;20042;-81
2023/06/04 08:47:54;;;;;;;10.63;4.85;;;21.10;99.90;;;;;;5002805;28;20050;-82
2023/06/04 08:50:23;;;;;;;7.72;4.38;;;21.10;99.90;;;;;;5006872;28;20056;-82
2023/06/04 08:52:55;;;;;;;8.80;5.00;;;21.00;99.90;;;;;;4998826;28;20053;-82
2023/06/04 08:55:23;;;;;;;12.35;5.55;;;21.00;99.90;;;;;;5003160;28;20046;-81
2023/06/04 08:57:53;;;;;;;7.97;4.97;;;21.00;99.90;;;;;;4996644;28;20160;-80
2023/06/04 09:00:20;;;;;;;8.07;5.30;;;20.90;99.90;;;;;;4995749;28;20124;-81
2023/06/04 09:02:47;;;;;;;11.65;5.72;;;20.90;99.90;;;;;;4999940;28;20697;-82
2023/06/04 09:05:20;;;;;;;8.27;5.57;;;20.90;99.90;;;;;;5000144;28;20054;-81
2023/06/04 09:07:51;;;;;;;9.00;5.07;;;20.90;99.90;;;;;;4995548;28;20046;-81
2023/06/04 09:10:20;;;;;;;8.23;5.38;;;20.90;99.90;;;;;;4999548;28;20046;-83
2023/06/04 09:12:49;;;;;;;8.15;5.10;;;20.90;99.90;;;;;;4993087;28;20559;-80
2023/06/04 09:15:15;;;;;;;13.45;4.85;;;20.90;99.90;;;;;;4994329;28;20466;-81
2023/06/04 09:17:42;;;;;;;6.00;4.80;;;20.90;99.90;;;;;;4985048;28;20038;-80
2023/06/04 09:20:22;;;;;;;10.25;4.95;;;21.00;99.90;;;;;;4997645;28;20074;-80
2023/06/04 09:22:49;;;;;;;8.63;4.80;;;21.00;99.90;;;;;;4994924;28;20145;-80
2023/06/04 09:25:25;;;;;;;6.82;4.65;;;21.00;99.90;;;;;;4993063;28;20077;-80
2023/06/04 09:28:05;;;;;;;8.45;4.50;;;21.10;99.90;;;;;;4996316;28;20074;-81
2023/06/04 09:30:32;;;;;;;7.32;3.90;;;21.10;99.90;;;;;;4997929;28;20046;-82
2023/06/04 09:33:09;;;;;;;7.85;4.15;;;21.00;99.90;;;;;;5002127;28;20050;-81
2023/06/04 09:35:36;;;;;;;4.85;3.53;;;21.00;99.90;;;;;;4991893;28;20042;-82
2023/06/04 09:38:05;;;;;;;6.63;3.92;;;21.10;99.90;;;;;;4997143;28;20053;-82
2023/06/04 09:40:37;;;;;;;9.00;3.78;;;21.10;99.90;;;;;;4992729;28;20042;-82
2023/06/04 09:43:04;;;;;;;11.00;4.05;;;21.10;99.90;;;;;;4995860;28;20077;-80
2023/06/04 09:45:32;;;;;;;8.30;4.30;;;21.00;99.90;;;;;;4999750;28;20053;-82
2023/06/04 09:48:00;;;;;;;10.18;4.05;;;21.00;99.90;;;;;;4988699;28;20061;-83
2023/06/04 09:50:30;;;;;;;9.70;4.63;;;21.00;99.90;;;;;;5001089;28;20078;-83
2023/06/04 09:52:57;;;;;;;7.00;4.88;;;20.90;99.90;;;;;;4994746;28;20093;-81
2023/06/04 09:55:25;;;;;;;5.55;3.92;;;21.00;99.90;;;;;;4994552;28;20051;-80
2023/06/04 09:57:53;;;;;;;5.95;4.07;;;20.90;99.90;;;;;;4976548;28;22454;-83
2023/06/04 10:00:22;;;;;;;7.40;4.00;;;21.00;99.90;;;;;;4994992;28;20104;-80
2023/06/04 10:02:55;;;;;;;11.90;4.97;;;21.10;99.90;;;;;;4999452;28;20046;-81
2023/06/04 10:05:24;;;;;;;8.82;4.18;;;21.10;99.90;;;;;;4998406;28;20058;-81
2023/06/04 10:07:52;;;;;;;9.52;4.57;;;21.10;99.90;;;;;;4993460;28;20101;-80
2023/06/04 10:10:26;;;;;;;8.98;4.78;;;21.10;99.90;;;;;;4987145;28;20138;-80
2023/06/04 10:13:16;;;;;;;6.70;4.93;;;21.20;99.90;;;;;;4991571;28;20074;-81
2023/06/04 10:15:43;;;;;;;7.95;4.95;;;21.20;99.90;;;;;;5019177;28;20069;-83
2023/06/04 10:18:10;;;;;;;10.38;5.00;;;21.20;99.90;;;;;;4993087;28;20046;-81
2023/06/04 10:20:38;;;;;;;8.57;5.07;;;21.10;99.90;;;;;;4998515;28;20046;-81
2023/06/04 10:23:06;;;;;;;8.98;5.35;;;21.10;99.90;;;;;;4994696;28;20046;-80
2023/06/04 10:25:32;;;;;;;12.50;5.07;;;21.10;99.90;;;;;;4996021;28;20046;-80
2023/06/04 10:28:00;;;;;;;9.60;5.90;;;21.10;99.90;;;;;;4994084;28;20055;-81
2023/06/04 10:30:27;;;;;;;10.20;6.15;;;21.20;99.90;;;;;;4999019;28;20126;-82
2023/06/04 10:32:56;;;;;;;10.65;5.38;;;21.20;99.90;;;;;;4999906;28;20042;-80
2023/06/04 10:35:38;;;;;;;10.32;5.90;;;21.20;99.90;;;;;;4999828;28;20491;-81
2023/06/04 10:38:14;;;;;;;10.05;5.93;;;21.20;99.90;;;;;;4990399;28;20047;-81
2023/06/04 10:40:40;;;;;;;8.57;5.95;;;21.20;99.90;;;;;;4976923;28;20046;-78
2023/06/04 10:43:09;;;;;;;8.73;5.28;;;21.20;99.90;;;;;;4994668;28;20051;-81
2023/06/04 10:45:36;;;;;;;7.25;4.82;;;21.20;99.90;;;;;;4987239;28;20462;-80
2023/06/04 10:48:06;;;;;;;7.55;5.05;;;21.30;99.90;;;;;;4996537;28;20050;-81
2023/06/04 10:50:34;;;;;;;7.65;4.85;;;21.40;99.90;;;;;;4998433;28;20581;-81
2023/06/04 10:53:05;;;;;;;12.27;5.55;;;21.50;99.90;;;;;;4991447;28;20050;-82
2023/06/04 10:55:32;;;;;;;8.77;5.00;;;21.60;99.90;;;;;;4993273;28;20038;-81
2023/06/04 10:58:00;;;;;;;8.73;5.20;;;21.60;99.90;;;;;;5010826;28;20062;-82
2023/06/04 11:00:38;;;;;;;8.02;4.90;;;21.60;99.90;;;;;;5001354;28;20521;-80
2023/06/04 11:03:09;;;;;;;4.93;4.38;;;21.60;99.90;;;;;;4990185;28;20047;-82
2023/06/04 11:05:38;;;;;;;8.57;5.00;;;21.50;99.90;;;;;;4999978;28;20100;-80
2023/06/04 11:08:06;;;;;;;7.13;4.85;;;21.50;99.90;;;;;;4990090;28;20100;-81
2023/06/04 11:10:35;;;;;;;8.50;5.22;;;21.60;99.90;;;;;;4986881;28;20503;-80
2023/06/04 11:13:03;;;;;;;9.13;4.90;;;21.50;99.90;;;;;;5007545;28;20050;-80
2023/06/04 11:15:41;;;;;;;6.15;5.28;;;21.50;99.90;;;;;;5012807;28;20046;-81
2023/06/04 11:18:15;;;;;;;8.25;4.32;;;21.60;99.90;;;;;;5000474;28;20046;-81
2023/06/04 11:20:43;;;;;;;9.43;5.00;;;21.60;99.90;;;;;;4997600;28;20038;-82
2023/06/04 11:23:12;;;;;;;13.60;5.55;;;21.70;99.90;;;;;;4993066;28;20038;-81
2023/06/04 11:25:38;;;;;;;11.35;5.88;;;21.80;99.90;;;;;;4996535;28;20105;-81
2023/06/04 11:28:05;;;;;;;7.10;4.68;;;21.80;99.90;;;;;;4994902;28;20073;-81
2023/06/04 11:30:32;;;;;;;5.43;4.63;;;21.70;99.90;;;;;;4995574;28;20057;-81
2023/06/04 11:33:05;;;;;;;6.70;4.55;;;21.80;99.90;;;;;;4997263;28;20043;-81
2023/06/04 11:35:41;;;;;;;7.70;5.07;;;21.80;99.90;;;;;;4999513;28;20046;-83
2023/06/04 11:38:09;;;;;;;5.88;4.60;;;21.80;99.90;;;;;;4993168;28;20043;-82
2023/06/04 11:40:36;;;;;;;5.55;4.70;;;21.80;99.90;;;;;;4996395;28;20047;-82
2023/06/04 11:43:03;;;;;;;6.72;5.32;;;21.90;99.90;;;;;;4994475;28;20546;-80
2023/06/04 11:45:30;;;;;;;7.45;4.88;;;22.00;99.90;;;;;;4998980;28;20059;-82
2023/06/04 11:47:57;;;;;;;8.02;4.80;;;22.00;99.90;;;;;;5000817;28;20050;-81
2023/06/04 11:50:28;;;;;;;10.88;5.32;;;22.00;99.90;;;;;;4998497;28;20050;-81
2023/06/04 11:52:55;;;;;;;6.53;4.30;;;22.00;99.90;;;;;;4994199;28;20046;-80
2023/06/04 11:55:23;;;;;;;9.10;4.55;;;22.00;99.90;;;;;;4986803;28;20054;-80
2023/06/04 11:57:50;;;;;;;6.00;5.03;;;22.00;99.90;;;;;;4978423;28;20069;-81
2023/06/04 12:00:19;;;;;;;7.30;4.38;;;22.10;99.90;;;;;;4998637;28;20430;-81
2023/06/04 12:02:50;;;;;;;6.28;4.03;;;22.10;99.90;;;;;;4999508;28;20042;-80
2023/06/04 12:05:22;;;;;;;6.68;4.20;;;22.10;99.90;;;;;;4998036;28;20054;-81
2023/06/04 12:07:50;;;;;;;8.30;3.97;;;22.20;99.90;;;;;;4996102;28;20043;-82
2023/06/04 12:10:19;;;;;;;6.03;4.57;;;22.20;99.90;;;;;;4995888;28;20043;-81
2023/06/04 12:12:46;;;;;;;7.13;4.72;;;22.30;99.90;;;;;;4980607;28;20074;-82
2023/06/04 12:15:19;;;;;;;9.85;5.35;;;22.40;99.90;;;;;;5000567;28;20046;-83
2023/06/04 12:17:54;;;;;;;6.28;4.43;;;22.40;99.90;;;;;;4999859;28;20057;-81
2023/06/04 12:20:35;;;;;;;7.40;3.90;;;22.50;99.90;;;;;;4999594;28;20050;-82
2023/06/04 12:23:04;;;;;;;8.30;4.30;;;22.50;99.90;;;;;;4990006;28;20039;-79
2023/06/04 12:25:32;;;;;;;8.75;4.32;;;22.60;99.90;;;;;;4997399;28;20438;-81
2023/06/04 12:27:59;;;;;;;5.32;4.10;;;22.60;99.90;;;;;;4992834;28;20182;-80
2023/06/04 12:30:39;;;;;;;8.98;3.95;;;22.70;99.90;;;;;;4995449;28;20047;-81
2023/06/04 12:33:06;;;;;;;;;;;22.70;99.90;;;;;;4999723;28;20467;-81
2023/06/04 12:35:34;;;;;;;7.05;4.32;;;22.80;99.90;;;;;;4995953;28;19932;-80
2023/06/04 12:38:03;;;;;;;6.15;4.20;;;22.80;99.90;;;;;;4987525;28;20043;-81
2023/06/04 12:40:30;;;;;;;11.30;3.97;;;22.90;99.90;;;;;;4994307;28;20062;-82
2023/06/04 12:42:57;;;;;;;7.72;4.43;;;22.90;99.90;;;;;;4993975;28;20042;-79
2023/06/04 12:45:24;;;;;;;7.85;4.32;;;22.90;99.90;;;;;;4997677;28;20065;-82
2023/06/04 12:47:51;;;;;;;9.52;4.38;;;23.00;99.90;;;;;;5000337;28;20054;-82